Time;durP1;ratioP1;P1;durP2;ratioP2;P2;SDS_P1;SDS_P2;PMS_P1;PMS_P2;Temp;Humidity;BMP_temperature;BMP_pressure;BME280_temperature;BME280_humidity;BME280_pressure;Samples;Min_cycle;Max_cycle;Signal;HPM_P1;HPM_P2
2023/11/03 00:00:36;;;;;;;0.50;0.50;;;13.20;99.90;;;;;;4998888;28;20213;-89
2023/11/03 00:03:06;;;;;;;0.70;0.70;;;13.10;99.90;;;;;;4989765;28;20241;-87
2023/11/03 00:05:35;;;;;;;0.50;0.50;;;13.10;99.90;;;;;;4991902;28;20210;-86
2023/11/03 00:08:03;;;;;;;0.60;0.60;;;13.20;99.90;;;;;;5004119;28;20206;-85
2023/11/03 00:10:31;;;;;;;0.50;0.50;;;13.20;99.90;;;;;;4993271;28;20495;-87
2023/11/03 00:12:59;;;;;;;0.50;0.50;;;13.20;99.90;;;;;;4989005;28;20661;-85
2023/11/03 00:15:26;;;;;;;0.60;0.60;;;13.10;99.90;;;;;;4990274;28;20343;-83
2023/11/03 00:17:54;;;;;;;0.60;0.60;;;13.20;99.90;;;;;;4996142;28;20238;-86
2023/11/03 00:20:21;;;;;;;0.70;0.70;;;13.20;99.90;;;;;;5010583;28;20203;-82
2023/11/03 00:22:48;;;;;;;0.50;0.50;;;13.10;99.90;;;;;;5002839;28;20194;-82
2023/11/03 00:25:16;;;;;;;0.95;0.95;;;13.20;99.90;;;;;;4997880;28;20444;-87
2023/11/03 00:27:46;;;;;;;0.50;0.50;;;13.10;99.90;;;;;;4999552;28;20214;-81
2023/11/03 00:30:14;;;;;;;0.50;0.50;;;13.10;99.90;;;;;;5001026;28;20273;-86
2023/11/03 00:32:41;;;;;;;0.60;0.60;;;13.00;99.90;;;;;;4998536;28;20448;-83
2023/11/03 00:35:09;;;;;;;0.60;0.60;;;13.10;99.90;;;;;;4998290;28;20440;-82
2023/11/03 00:37:38;;;;;;;0.70;0.70;;;13.10;99.90;;;;;;4999115;28;20226;-82
2023/11/03 00:40:11;;;;;;;0.60;0.60;;;13.10;99.90;;;;;;4995700;28;20364;-79
2023/11/03 00:42:39;;;;;;;0.50;0.50;;;13.20;99.90;;;;;;5006097;28;20210;-82
2023/11/03 00:45:07;;;;;;;0.50;0.50;;;13.30;99.90;;;;;;5003207;28;20217;-81
2023/11/03 00:47:34;;;;;;;0.50;0.50;;;13.30;99.90;;;;;;4997094;28;20447;-83
2023/11/03 00:50:01;;;;;;;0.50;0.50;;;13.40;99.90;;;;;;4997911;28;20523;-83
2023/11/03 00:52:28;;;;;;;0.50;0.50;;;13.40;99.90;;;;;;4991798;28;20270;-85
2023/11/03 00:54:55;;;;;;;1.97;0.90;;;13.50;99.90;;;;;;4992685;28;20459;-91
2023/11/03 00:57:23;;;;;;;0.67;0.67;;;13.60;99.90;;;;;;4989613;28;20461;-82
2023/11/03 00:59:49;;;;;;;0.60;0.60;;;13.50;99.90;;;;;;4989821;28;20750;-84
2023/11/03 01:02:17;;;;;;;0.70;0.70;;;13.70;99.90;;;;;;4987626;28;20465;-85
2023/11/03 01:04:45;;;;;;;0.50;0.50;;;13.60;99.90;;;;;;4988269;28;20455;-80
2023/11/03 01:07:13;;;;;;;0.90;0.70;;;13.60;99.90;;;;;;4987314;28;20450;-84
2023/11/03 01:09:41;;;;;;;0.60;0.60;;;13.50;99.90;;;;;;4997205;28;20478;-79
2023/11/03 01:12:08;;;;;;;0.50;0.50;;;13.60;99.90;;;;;;4996647;28;20444;-83
2023/11/03 01:14:36;;;;;;;0.50;0.50;;;13.70;99.90;;;;;;4991867;28;20210;-80
2023/11/03 01:17:05;;;;;;;0.50;0.50;;;13.60;99.90;;;;;;4998849;28;20471;-83
2023/11/03 01:19:32;;;;;;;0.80;0.80;;;13.60;99.90;;;;;;5003078;28;20487;-82
2023/11/03 01:21:59;;;;;;;0.60;0.60;;;13.60;99.90;;;;;;4991642;28;20808;-82
2023/11/03 01:24:27;;;;;;;0.60;0.60;;;13.50;99.90;;;;;;4992101;28;20465;-80
2023/11/03 01:26:54;;;;;;;0.70;0.70;;;13.40;99.90;;;;;;4997853;28;20455;-84
2023/11/03 01:29:21;;;;;;;0.60;0.60;;;13.20;99.90;;;;;;5003256;28;20419;-82
2023/11/03 01:31:49;;;;;;;0.50;0.50;;;13.20;99.90;;;;;;4999515;28;20230;-83
2023/11/03 01:34:16;;;;;;;0.70;0.70;;;13.20;99.90;;;;;;4995875;28;20202;-84
2023/11/03 01:36:43;;;;;;;0.50;0.50;;;13.00;99.90;;;;;;5004086;28;20501;-83
2023/11/03 01:39:11;;;;;;;0.50;0.50;;;13.20;99.90;;;;;;5001045;28;20480;-84
2023/11/03 01:41:39;;;;;;;1.30;1.05;;;13.10;99.90;;;;;;4989957;28;20209;-80
2023/11/03 01:44:09;;;;;;;0.50;0.50;;;13.00;99.90;;;;;;5013053;28;20186;-84
2023/11/03 01:46:38;;;;;;;0.50;0.50;;;12.70;99.90;;;;;;5017519;28;20186;-84
2023/11/03 01:49:08;;;;;;;0.70;0.70;;;12.70;99.90;;;;;;5016988;28;20202;-87
2023/11/03 01:51:36;;;;;;;0.50;0.50;;;12.60;99.90;;;;;;5003733;28;20214;-89
2023/11/03 01:54:05;;;;;;;0.65;0.65;;;12.40;99.90;;;;;;4996986;28;20246;-88
2023/11/03 01:56:35;;;;;;;0.50;0.50;;;12.30;99.90;;;;;;5013808;28;20218;-80
2023/11/03 01:59:03;;;;;;;0.60;0.60;;;12.40;99.90;;;;;;5002681;28;20219;-82
2023/11/03 02:01:32;;;;;;;0.50;0.50;;;12.40;99.90;;;;;;5005822;28;20226;-80
2023/11/03 02:03:59;;;;;;;1.13;1.13;;;12.20;99.90;;;;;;5006077;28;20278;-80
2023/11/03 02:06:27;;;;;;;1.23;1.13;;;12.20;99.90;;;;;;4992033;28;20206;-83
2023/11/03 02:08:54;;;;;;;0.50;0.50;;;12.40;99.90;;;;;;5002957;28;20238;-81
2023/11/03 02:11:26;;;;;;;0.98;0.95;;;12.50;99.90;;;;;;5001525;28;20222;-82
2023/11/03 02:13:55;;;;;;;0.40;0.40;;;12.40;99.90;;;;;;4994309;28;20203;-80
2023/11/03 02:16:23;;;;;;;0.60;0.60;;;12.40;99.90;;;;;;4994490;28;20206;-81
2023/11/03 02:18:50;;;;;;;0.50;0.50;;;12.30;99.90;;;;;;4996718;28;20230;-88
2023/11/03 02:21:18;;;;;;;0.70;0.70;;;12.60;99.90;;;;;;5006609;28;20532;-85
2023/11/03 02:23:45;;;;;;;0.63;0.63;;;12.40;99.90;;;;;;4999244;28;20348;-81
2023/11/03 02:26:12;;;;;;;0.50;0.50;;;12.20;99.90;;;;;;4994058;28;20230;-83
2023/11/03 02:28:39;;;;;;;0.60;0.60;;;12.20;99.90;;;;;;4997083;28;20207;-85
2023/11/03 02:31:06;;;;;;;0.70;0.70;;;12.20;99.90;;;;;;5003221;28;20265;-83
2023/11/03 02:33:33;;;;;;;0.50;0.50;;;12.30;99.90;;;;;;4999587;28;20199;-84
2023/11/03 02:36:00;;;;;;;0.50;0.50;;;12.20;99.90;;;;;;5000308;28;20250;-86
2023/11/03 02:38:27;;;;;;;0.60;0.60;;;12.10;99.90;;;;;;4993650;28;20593;-87
2023/11/03 02:40:55;;;;;;;1.67;1.58;;;12.10;99.90;;;;;;4996612;28;20270;-84
2023/11/03 02:43:23;;;;;;;0.50;0.50;;;12.10;99.90;;;;;;4994451;28;20231;-80
2023/11/03 02:45:50;;;;;;;0.50;0.50;;;12.10;99.90;;;;;;4999494;28;20214;-79
2023/11/03 02:48:18;;;;;;;0.47;0.47;;;12.00;99.90;;;;;;4998562;28;20527;-82
2023/11/03 02:50:45;;;;;;;0.40;0.40;;;11.90;99.90;;;;;;4997407;28;20270;-79
2023/11/03 02:53:12;;;;;;;0.93;0.93;;;11.90;99.90;;;;;;4991528;28;20209;-81
2023/11/03 02:55:39;;;;;;;1.30;1.20;;;11.90;99.90;;;;;;5006537;28;20222;-81
2023/11/03 02:58:07;;;;;;;1.08;1.08;;;11.90;99.90;;;;;;4998368;28;20291;-85
2023/11/03 03:00:37;;;;;;;0.50;0.50;;;11.80;99.90;;;;;;5004387;28;20195;-81
2023/11/03 03:03:07;;;;;;;0.50;0.50;;;11.80;99.90;;;;;;4999176;28;20241;-83
2023/11/03 03:05:36;;;;;;;0.40;0.40;;;11.80;99.90;;;;;;4995191;28;20202;-85
2023/11/03 03:08:04;;;;;;;0.40;0.40;;;11.80;99.90;;;;;;4989214;28;20219;-82
2023/11/03 03:10:32;;;;;;;0.40;0.40;;;11.80;99.90;;;;;;4993151;28;20206;-82
2023/11/03 03:13:02;;;;;;;1.60;1.00;;;11.80;99.90;;;;;;4988917;28;20218;-82
2023/11/03 03:15:29;;;;;;;0.70;0.70;;;11.80;99.90;;;;;;4997444;28;20198;-82
2023/11/03 03:17:56;;;;;;;0.40;0.40;;;11.80;99.90;;;;;;4997489;28;20274;-83
2023/11/03 03:20:24;;;;;;;0.40;0.40;;;11.80;99.90;;;;;;5002641;28;20264;-82
2023/11/03 03:22:50;;;;;;;0.47;0.47;;;11.80;99.90;;;;;;5004891;28;20209;-85
2023/11/03 03:25:18;;;;;;;0.80;0.80;;;11.80;99.90;;;;;;4989662;28;20238;-84
2023/11/03 03:27:45;;;;;;;3.72;1.25;;;11.80;99.90;;;;;;5004665;28;20436;-86
2023/11/03 03:30:13;;;;;;;0.65;0.65;;;12.00;99.90;;;;;;5000277;28;20252;-81
2023/11/03 03:32:40;;;;;;;0.70;0.70;;;11.80;99.90;;;;;;4991555;28;20390;-84
2023/11/03 03:35:07;;;;;;;0.50;0.50;;;11.70;99.90;;;;;;4998095;28;20277;-82
2023/11/03 03:37:34;;;;;;;0.80;0.80;;;11.80;99.90;;;;;;4997139;28;20199;-82
2023/11/03 03:40:02;;;;;;;0.60;0.60;;;11.70;99.90;;;;;;4992481;28;20245;-83
2023/11/03 03:42:29;;;;;;;0.43;0.43;;;11.70;99.90;;;;;;4997901;28;20491;-81
2023/11/03 03:44:56;;;;;;;1.35;1.17;;;11.80;99.90;;;;;;5004332;28;20273;-79
2023/11/03 03:47:23;;;;;;;0.50;0.50;;;11.80;99.90;;;;;;4996604;28;20207;-82
2023/11/03 03:49:50;;;;;;;0.50;0.50;;;11.70;99.90;;;;;;4997722;28;20206;-80
2023/11/03 03:52:17;;;;;;;0.40;0.40;;;11.70;99.90;;;;;;5007794;28;20204;-80
2023/11/03 03:54:44;;;;;;;0.40;0.40;;;11.70;99.90;;;;;;4995510;28;20273;-81
2023/11/03 03:57:11;;;;;;;0.82;0.82;;;11.70;99.90;;;;;;4990046;28;20326;-79
2023/11/03 03:59:38;;;;;;;0.50;0.50;;;11.70;99.90;;;;;;5001680;28;20225;-79
2023/11/03 04:02:05;;;;;;;0.40;0.40;;;11.70;99.90;;;;;;4997489;28;20226;-78
2023/11/03 04:04:32;;;;;;;0.40;0.40;;;11.70;99.90;;;;;;4996851;28;20210;-80
2023/11/03 04:07:00;;;;;;;0.60;0.60;;;11.60;99.90;;;;;;4998962;28;20210;-80
2023/11/03 04:09:28;;;;;;;0.40;0.40;;;11.80;99.90;;;;;;4991100;28;20206;-80
2023/11/03 04:11:55;;;;;;;1.23;1.23;;;11.60;99.90;;;;;;5003313;28;20273;-80
2023/11/03 04:14:23;;;;;;;0.60;0.60;;;11.60;99.90;;;;;;4991900;28;20206;-79
2023/11/03 04:16:51;;;;;;;0.40;0.40;;;11.70;99.90;;;;;;4989052;28;20202;-81
2023/11/03 04:19:18;;;;;;;0.50;0.50;;;11.60;99.90;;;;;;4990489;28;20235;-82
2023/11/03 04:21:46;;;;;;;0.90;0.90;;;11.60;99.90;;;;;;4989635;28;20202;-82
2023/11/03 04:24:12;;;;;;;0.50;0.50;;;11.60;99.90;;;;;;4994778;28;20236;-81
2023/11/03 04:26:40;;;;;;;0.40;0.40;;;11.60;99.90;;;;;;4995099;28;20214;-82
2023/11/03 04:29:07;;;;;;;0.40;0.40;;;11.60;99.90;;;;;;4996690;28;20240;-82
2023/11/03 04:31:35;;;;;;;0.63;0.63;;;11.60;99.90;;;;;;4995904;28;20475;-85
2023/11/03 04:34:02;;;;;;;0.45;0.45;;;11.60;99.90;;;;;;5003675;28;20376;-87
2023/11/03 04:36:29;;;;;;;1.90;1.80;;;11.60;99.90;;;;;;4988905;28;20199;-82
2023/11/03 04:38:56;;;;;;;0.40;0.40;;;11.40;99.90;;;;;;4989394;28;20253;-85
2023/11/03 04:41:23;;;;;;;0.68;0.68;;;11.20;99.90;;;;;;4993824;28;20207;-82
2023/11/03 04:43:55;;;;;;;0.73;0.63;;;11.00;99.90;;;;;;5002136;28;20210;-88
2023/11/03 04:46:24;;;;;;;0.40;0.40;;;10.90;99.90;;;;;;5000125;28;20198;-84
2023/11/03 04:48:52;;;;;;;0.40;0.40;;;10.80;99.90;;;;;;4995591;28;20202;-87
2023/11/03 04:51:19;;;;;;;0.40;0.40;;;10.60;99.90;;;;;;5001631;28;20202;-86
2023/11/03 04:53:46;;;;;;;0.40;0.40;;;10.70;99.90;;;;;;5000173;28;20274;-83
2023/11/03 04:56:13;;;;;;;0.40;0.40;;;10.70;99.90;;;;;;4987845;28;20271;-85
2023/11/03 04:58:41;;;;;;;0.40;0.40;;;10.70;99.90;;;;;;5002922;28;20237;-83
2023/11/03 05:01:08;;;;;;;1.20;0.85;;;10.70;99.90;;;;;;5008203;28;20221;-85
2023/11/03 05:03:35;;;;;;;1.02;0.52;;;10.60;99.90;;;;;;5007979;28;20217;-84
2023/11/03 05:08:44;;;;;;;0.50;0.50;;;10.60;99.90;;;;;;5079283;23;20276;-88
2023/11/03 05:11:11;;;;;;;2.13;1.42;;;10.60;99.90;;;;;;4985543;28;20207;-89
2023/11/03 05:13:43;;;;;;;0.50;0.50;;;10.60;99.90;;;;;;4989758;28;20212;-86
2023/11/03 05:16:11;;;;;;;0.60;0.60;;;10.60;99.90;;;;;;4979191;28;20249;-84
2023/11/03 05:18:38;;;;;;;0.60;0.60;;;10.50;99.90;;;;;;4984367;28;20229;-81
2023/11/03 05:21:06;;;;;;;0.93;0.93;;;10.50;99.90;;;;;;4984666;28;20207;-85
2023/11/03 05:23:32;;;;;;;0.75;0.75;;;10.40;99.90;;;;;;4978880;28;20278;-81
2023/11/03 05:26:00;;;;;;;0.40;0.38;;;10.40;99.90;;;;;;4971809;28;20207;-82
2023/11/03 05:28:27;;;;;;;0.40;0.40;;;10.30;99.90;;;;;;4982142;28;20198;-81
2023/11/03 05:30:54;;;;;;;0.85;0.85;;;10.30;99.90;;;;;;4975436;28;20203;-82
2023/11/03 05:33:21;;;;;;;0.40;0.40;;;10.30;99.90;;;;;;4975561;28;20199;-80
2023/11/03 05:35:48;;;;;;;0.40;0.40;;;10.30;99.90;;;;;;4969223;28;20203;-81
2023/11/03 05:38:15;;;;;;;0.50;0.50;;;10.30;99.90;;;;;;4973118;28;20207;-80
2023/11/03 05:40:43;;;;;;;2.17;2.08;;;10.30;99.90;;;;;;4970781;28;20297;-82
2023/11/03 05:43:09;;;;;;;0.40;0.40;;;10.30;99.90;;;;;;4969470;28;20507;-82
2023/11/03 05:45:37;;;;;;;0.40;0.40;;;10.20;99.90;;;;;;4975392;28;20206;-80
2023/11/03 05:48:04;;;;;;;0.95;0.95;;;10.20;99.90;;;;;;4975151;28;20282;-79
2023/11/03 05:50:31;;;;;;;0.45;0.45;;;10.20;99.90;;;;;;4978933;28;20215;-80
2023/11/03 05:52:59;;;;;;;1.05;1.05;;;10.20;99.90;;;;;;4979835;28;20235;-85
2023/11/03 05:55:26;;;;;;;0.50;0.50;;;10.20;99.90;;;;;;4981678;28;20555;-85
2023/11/03 05:57:55;;;;;;;0.90;0.90;;;10.10;99.90;;;;;;4980769;28;20218;-85
2023/11/03 06:00:27;;;;;;;0.70;0.70;;;10.20;99.90;;;;;;4972308;28;20237;-82
2023/11/03 06:02:55;;;;;;;1.20;0.70;;;10.20;99.90;;;;;;4980923;28;20214;-85
2023/11/03 06:05:22;;;;;;;1.05;1.05;;;10.20;99.90;;;;;;4979427;28;20210;-85
2023/11/03 06:07:49;;;;;;;1.40;1.40;;;10.20;99.90;;;;;;4977174;28;20288;-84
2023/11/03 06:10:16;;;;;;;1.05;1.05;;;10.20;99.90;;;;;;4974227;28;20211;-88
2023/11/03 06:12:43;;;;;;;0.93;0.88;;;10.20;99.90;;;;;;4972927;28;20215;-83
2023/11/03 06:15:10;;;;;;;0.70;0.70;;;10.20;99.90;;;;;;4982763;28;20631;-86
2023/11/03 06:17:36;;;;;;;0.40;0.40;;;10.30;99.90;;;;;;4968639;28;20208;-87
2023/11/03 06:20:05;;;;;;;1.08;1.08;;;10.30;99.90;;;;;;4977889;28;20230;-83
2023/11/03 06:22:32;;;;;;;1.20;1.08;;;10.30;99.90;;;;;;4973836;28;20512;-86
2023/11/03 06:24:59;;;;;;;0.40;0.40;;;10.20;99.90;;;;;;4989062;28;20250;-88
2023/11/03 06:27:26;;;;;;;0.40;0.40;;;10.30;99.90;;;;;;4988156;28;20211;-84
2023/11/03 06:29:53;;;;;;;0.50;0.50;;;10.40;99.90;;;;;;4984012;28;20259;-86
2023/11/03 06:32:20;;;;;;;1.10;1.10;;;10.30;99.90;;;;;;4989574;28;20199;-85
2023/11/03 06:34:47;;;;;;;0.40;0.40;;;10.40;99.90;;;;;;4991102;28;20192;-85
2023/11/03 06:37:14;;;;;;;0.55;0.55;;;10.30;99.90;;;;;;4986329;28;20241;-86
2023/11/03 06:39:40;;;;;;;0.50;0.50;;;10.30;99.90;;;;;;4977716;28;20270;-88
2023/11/03 06:42:07;;;;;;;0.50;0.50;;;10.30;99.90;;;;;;4983044;28;20270;-86
2023/11/03 06:44:35;;;;;;;1.20;1.20;;;10.30;99.90;;;;;;4975583;28;20234;-84
2023/11/03 06:47:02;;;;;;;0.40;0.40;;;10.30;99.90;;;;;;4981168;28;20500;-84
2023/11/03 06:49:30;;;;;;;0.90;0.90;;;10.30;99.90;;;;;;4988096;28;20199;-84
2023/11/03 06:51:57;;;;;;;0.50;0.50;;;10.30;99.90;;;;;;4995688;28;20228;-86
2023/11/03 06:54:24;;;;;;;1.00;1.00;;;10.30;99.90;;;;;;4986322;28;20238;-86
2023/11/03 06:56:52;;;;;;;0.80;0.80;;;10.30;99.90;;;;;;4978771;28;20230;-85
2023/11/03 06:59:20;;;;;;;0.63;0.63;;;10.30;99.90;;;;;;4971622;28;20226;-86
2023/11/03 07:01:47;;;;;;;1.80;1.15;;;10.40;99.90;;;;;;4975987;28;20310;-83
2023/11/03 07:04:14;;;;;;;0.80;0.80;;;10.40;99.90;;;;;;4977907;28;20202;-85
2023/11/03 07:06:41;;;;;;;0.82;0.82;;;10.40;99.90;;;;;;4979234;28;20525;-84
2023/11/03 07:09:10;;;;;;;0.40;0.40;;;10.40;99.90;;;;;;4976089;28;20237;-86
2023/11/03 07:11:37;;;;;;;1.25;1.20;;;10.60;99.90;;;;;;4968948;28;20211;-87
2023/11/03 07:14:05;;;;;;;1.30;1.20;;;10.60;99.90;;;;;;4976521;28;20210;-85
2023/11/03 07:16:33;;;;;;;0.77;0.77;;;10.50;99.90;;;;;;4975291;28;20208;-85
2023/11/03 07:19:00;;;;;;;0.50;0.50;;;10.50;99.90;;;;;;4968978;28;20286;-85
2023/11/03 07:21:27;;;;;;;1.15;1.15;;;10.50;99.90;;;;;;4980164;28;20211;-85
2023/11/03 07:23:54;;;;;;;0.57;0.57;;;10.50;99.90;;;;;;4972357;28;20299;-85
2023/11/03 07:26:22;;;;;;;1.27;1.27;;;10.40;99.90;;;;;;4977723;28;20207;-81
2023/11/03 07:28:49;;;;;;;0.70;0.70;;;10.40;99.90;;;;;;4988017;28;20236;-84
2023/11/03 07:31:17;;;;;;;0.98;0.88;;;10.40;99.90;;;;;;4984751;28;20245;-89
2023/11/03 07:33:43;;;;;;;0.40;0.40;;;10.40;99.90;;;;;;4982223;28;20451;-85
2023/11/03 07:36:11;;;;;;;2.90;2.80;;;10.50;99.90;;;;;;4964985;28;20481;-87
2023/11/03 07:38:39;;;;;;;0.68;0.68;;;10.40;99.90;;;;;;4980937;28;20219;-83
2023/11/03 07:41:10;;;;;;;0.63;0.63;;;10.40;99.90;;;;;;4976265;28;20223;-82
2023/11/03 07:43:37;;;;;;;0.85;0.85;;;10.40;99.90;;;;;;4968102;28;20207;-86
2023/11/03 07:46:04;;;;;;;1.55;1.45;;;10.40;99.90;;;;;;4973424;28;20225;-85
2023/11/03 07:48:31;;;;;;;0.40;0.40;;;10.40;99.90;;;;;;4974446;28;20308;-81
2023/11/03 07:50:59;;;;;;;0.50;0.50;;;10.40;99.90;;;;;;4970897;28;20282;-81
2023/11/03 07:53:26;;;;;;;1.33;1.33;;;10.40;99.90;;;;;;4970508;28;20206;-81
2023/11/03 07:55:55;;;;;;;0.85;0.85;;;10.30;99.90;;;;;;4977421;28;20202;-81
2023/11/03 07:58:22;;;;;;;0.60;0.60;;;10.40;99.90;;;;;;4966741;28;20215;-81
2023/11/03 08:00:49;;;;;;;2.03;1.92;;;10.30;99.90;;;;;;4967113;28;20244;-84
2023/11/03 08:03:17;;;;;;;0.93;0.93;;;10.30;99.90;;;;;;4967338;28;20210;-79
2023/11/03 08:05:45;;;;;;;2.67;2.47;;;10.20;99.90;;;;;;4978417;28;20211;-83
2023/11/03 08:08:14;;;;;;;1.23;1.13;;;10.30;99.90;;;;;;4972894;28;20219;-81
2023/11/03 08:10:41;;;;;;;0.98;0.98;;;10.30;99.90;;;;;;4977985;28;20234;-81
2023/11/03 08:13:09;;;;;;;2.15;2.05;;;10.30;99.90;;;;;;4977539;28;20278;-80
2023/11/03 08:15:36;;;;;;;1.40;1.40;;;10.30;99.90;;;;;;4973864;28;20214;-79
2023/11/03 08:18:07;;;;;;;1.50;1.20;;;10.20;99.90;;;;;;4972473;28;20215;-77
2023/11/03 08:20:34;;;;;;;1.25;1.20;;;10.30;99.90;;;;;;4965674;28;20227;-81
2023/11/03 08:23:01;;;;;;;0.93;0.93;;;10.20;99.90;;;;;;4970040;28;20212;-79
2023/11/03 08:25:30;;;;;;;0.82;0.82;;;10.20;99.90;;;;;;4976412;28;20241;-78
2023/11/03 08:27:57;;;;;;;0.50;0.50;;;10.20;99.90;;;;;;4973623;28;20224;-79
2023/11/03 08:30:25;;;;;;;2.90;2.47;;;10.10;99.90;;;;;;4967788;28;20282;-78
2023/11/03 08:32:52;;;;;;;2.92;2.72;;;10.10;99.90;;;;;;4972119;28;20212;-80
2023/11/03 08:35:20;;;;;;;0.93;0.90;;;10.10;99.90;;;;;;4972225;28;20302;-80
2023/11/03 08:37:54;;;;;;;0.90;0.90;;;10.20;99.90;;;;;;4969025;28;20246;-84
2023/11/03 08:40:22;;;;;;;1.13;1.13;;;10.20;99.90;;;;;;4977224;28;20290;-77
2023/11/03 08:42:49;;;;;;;1.80;1.70;;;10.10;99.90;;;;;;4974234;28;20325;-80
2023/11/03 08:45:19;;;;;;;0.82;0.82;;;10.10;99.90;;;;;;4975071;28;20207;-81
2023/11/03 08:47:47;;;;;;;2.90;2.70;;;10.10;99.90;;;;;;4969517;28;20219;-79
2023/11/03 08:50:16;;;;;;;1.42;1.33;;;10.10;99.90;;;;;;4977290;28;20250;-78
2023/11/03 08:52:44;;;;;;;1.80;1.70;;;10.20;99.90;;;;;;4975497;28;20675;-79
2023/11/03 08:55:13;;;;;;;0.70;0.70;;;10.20;99.90;;;;;;4975465;28;20218;-80
2023/11/03 08:57:41;;;;;;;1.92;1.80;;;10.20;99.90;;;;;;4979804;28;20221;-79
2023/11/03 09:00:15;;;;;;;0.93;0.93;;;10.20;99.90;;;;;;4969631;28;20691;-79
2023/11/03 09:02:48;;;;;;;1.38;1.27;;;10.20;99.90;;;;;;4970688;28;20216;-80
2023/11/03 09:05:16;;;;;;;0.68;0.68;;;10.20;99.90;;;;;;4977660;28;20200;-78
2023/11/03 09:07:44;;;;;;;1.08;1.02;;;10.10;99.90;;;;;;4985538;28;20394;-84
2023/11/03 09:10:13;;;;;;;1.00;1.00;;;10.10;99.90;;;;;;4985017;28;20269;-85
2023/11/03 09:12:41;;;;;;;1.10;0.95;;;10.10;99.90;;;;;;4977446;28;20213;-83
2023/11/03 09:15:09;;;;;;;0.50;0.50;;;10.00;99.90;;;;;;4971724;28;20230;-80
2023/11/03 09:17:38;;;;;;;2.00;1.90;;;10.10;99.90;;;;;;4980198;28;20307;-83
2023/11/03 09:20:09;;;;;;;0.50;0.50;;;10.10;99.90;;;;;;4974317;28;20245;-80
2023/11/03 09:22:38;;;;;;;0.60;0.60;;;10.10;99.90;;;;;;4973536;28;20199;-83
2023/11/03 09:25:09;;;;;;;1.60;1.50;;;10.10;99.90;;;;;;4982306;28;20242;-83
2023/11/03 09:27:38;;;;;;;1.05;0.70;;;10.10;99.90;;;;;;4981559;28;20234;-82
2023/11/03 09:30:10;;;;;;;1.75;1.65;;;10.00;99.90;;;;;;4980776;28;20211;-81
2023/11/03 09:32:40;;;;;;;0.77;0.77;;;10.00;99.90;;;;;;4982215;28;20523;-80
2023/11/03 09:35:09;;;;;;;0.50;0.50;;;10.00;99.90;;;;;;4986455;28;20225;-80
2023/11/03 09:37:38;;;;;;;1.90;1.80;;;10.00;99.90;;;;;;4980791;28;20202;-85
2023/11/03 09:40:12;;;;;;;2.00;1.90;;;10.00;99.90;;;;;;4969726;28;20219;-84
2023/11/03 09:42:40;;;;;;;0.50;0.50;;;10.10;99.90;;;;;;4977624;28;20480;-79
2023/11/03 09:45:15;;;;;;;0.80;0.80;;;10.10;99.90;;;;;;4977563;28;20203;-81
2023/11/03 09:47:43;;;;;;;1.48;1.40;;;10.20;99.90;;;;;;4982916;28;20327;-80
2023/11/03 09:50:11;;;;;;;2.78;2.05;;;10.20;99.90;;;;;;4986424;28;20214;-80
2023/11/03 09:52:44;;;;;;;1.42;1.38;;;10.00;99.90;;;;;;4986767;28;20203;-79
2023/11/03 09:55:17;;;;;;;0.73;0.73;;;10.00;99.90;;;;;;4981682;28;20202;-83
2023/11/03 09:57:49;;;;;;;1.73;1.63;;;9.90;99.90;;;;;;4985959;28;20206;-80
2023/11/03 10:00:19;;;;;;;0.95;0.95;;;9.90;99.90;;;;;;4981415;28;20253;-80
2023/11/03 10:02:49;;;;;;;0.50;0.50;;;9.90;99.90;;;;;;4978028;28;20206;-79
2023/11/03 10:05:18;;;;;;;1.67;0.90;;;10.10;99.90;;;;;;4982084;28;20210;-80
2023/11/03 10:08:05;;;;;;;0.60;0.60;;;9.90;99.90;;;;;;4981101;28;20210;-78
2023/11/03 10:10:34;;;;;;;1.67;1.58;;;9.90;99.90;;;;;;4981289;28;20215;-79
2023/11/03 10:13:11;;;;;;;0.50;0.50;;;10.00;99.90;;;;;;4975235;28;20214;-77
2023/11/03 10:15:40;;;;;;;1.00;1.00;;;9.90;99.90;;;;;;4976580;28;20285;-79
2023/11/03 10:18:08;;;;;;;2.60;2.40;;;9.90;99.90;;;;;;4982027;28;20522;-83
2023/11/03 10:20:36;;;;;;;1.92;1.73;;;9.90;99.90;;;;;;4986393;28;20557;-77
2023/11/03 10:23:04;;;;;;;1.95;1.85;;;9.90;99.90;;;;;;4987207;28;20199;-78
2023/11/03 10:25:32;;;;;;;1.17;1.17;;;10.00;99.90;;;;;;4988631;28;20422;-77
2023/11/03 10:28:01;;;;;;;0.73;0.73;;;10.00;99.90;;;;;;4982613;28;20211;-80
2023/11/03 10:30:29;;;;;;;0.82;0.82;;;9.80;99.90;;;;;;4979387;28;20278;-79
2023/11/03 10:32:57;;;;;;;0.60;0.60;;;10.00;99.90;;;;;;4974875;28;20230;-78
2023/11/03 10:35:24;;;;;;;0.50;0.50;;;9.90;99.90;;;;;;4976439;28;20203;-86
2023/11/03 10:37:53;;;;;;;1.10;1.10;;;9.90;99.90;;;;;;4974583;28;20203;-84
2023/11/03 10:40:21;;;;;;;1.00;1.00;;;10.00;99.90;;;;;;4976452;28;20258;-80
2023/11/03 10:42:50;;;;;;;0.60;0.60;;;10.00;99.90;;;;;;4983804;28;20270;-80
2023/11/03 10:45:20;;;;;;;1.27;1.25;;;9.90;99.90;;;;;;4978019;28;20336;-80
2023/11/03 10:47:54;;;;;;;0.65;0.65;;;10.00;99.90;;;;;;4978779;28;20262;-82
2023/11/03 10:50:31;;;;;;;1.40;1.30;;;9.90;99.90;;;;;;4978984;28;20391;-80
2023/11/03 10:53:12;;;;;;;2.00;1.83;;;9.90;99.90;;;;;;4986384;28;20456;-81
2023/11/03 10:55:51;;;;;;;1.65;1.55;;;9.90;99.90;;;;;;4977497;28;20210;-79
2023/11/03 10:58:18;;;;;;;2.17;2.03;;;9.90;99.90;;;;;;4985626;28;20399;-78
2023/11/03 11:00:55;;;;;;;1.15;1.10;;;9.90;99.90;;;;;;4979005;28;20298;-79
2023/11/03 11:03:40;;;;;;;0.60;0.60;;;9.90;99.90;;;;;;4972883;28;20203;-79
2023/11/03 11:06:21;;;;;;;1.33;1.33;;;9.90;99.90;;;;;;4978723;28;20219;-82
2023/11/03 11:09:00;;;;;;;0.98;0.98;;;9.90;99.90;;;;;;4974880;28;20215;-82
2023/11/03 11:11:27;;;;;;;0.80;0.80;;;9.90;99.90;;;;;;4985240;28;20250;-80
2023/11/03 11:13:54;;;;;;;1.88;1.77;;;9.90;99.90;;;;;;4980173;28;20539;-78
2023/11/03 11:16:22;;;;;;;0.65;0.65;;;9.90;99.90;;;;;;4980119;28;20266;-78
2023/11/03 11:18:55;;;;;;;0.60;0.60;;;9.90;99.90;;;;;;4973110;28;20200;-80
2023/11/03 11:21:34;;;;;;;0.63;0.63;;;9.90;99.90;;;;;;4983032;28;20206;-77
2023/11/03 11:24:02;;;;;;;2.58;2.38;;;9.90;99.90;;;;;;4977182;28;20218;-78
2023/11/03 11:26:31;;;;;;;1.10;1.10;;;9.90;99.90;;;;;;4974606;28;20198;-77
2023/11/03 11:29:03;;;;;;;0.70;0.70;;;9.80;99.90;;;;;;4985285;28;20199;-79
2023/11/03 11:31:30;;;;;;;0.80;0.80;;;9.80;99.90;;;;;;4982671;28;20207;-77
2023/11/03 11:34:17;;;;;;;1.17;1.17;;;9.80;99.90;;;;;;4980098;28;20226;-77
2023/11/03 11:36:47;;;;;;;0.90;0.90;;;9.80;99.90;;;;;;4969306;28;20199;-81
2023/11/03 11:39:17;;;;;;;1.55;1.48;;;9.90;99.90;;;;;;4975305;28;20258;-80
2023/11/03 11:41:54;;;;;;;1.60;1.27;;;9.80;99.90;;;;;;4974418;28;20239;-84
2023/11/03 11:44:25;;;;;;;0.60;0.60;;;9.80;99.90;;;;;;4982411;28;20550;-78
2023/11/03 11:46:57;;;;;;;1.73;1.20;;;9.80;99.90;;;;;;4975531;28;20511;-79
2023/11/03 11:49:27;;;;;;;0.63;0.63;;;9.80;99.90;;;;;;4978264;28;20238;-79
2023/11/03 11:51:56;;;;;;;0.82;0.82;;;9.90;99.90;;;;;;4980936;28;20222;-79
2023/11/03 11:54:24;;;;;;;0.50;0.50;;;9.90;99.90;;;;;;4984962;28;20199;-78
2023/11/03 11:56:52;;;;;;;1.27;1.27;;;9.90;99.90;;;;;;4956600;28;20657;-79
2023/11/03 11:59:20;;;;;;;0.93;0.93;;;9.90;99.90;;;;;;4984102;28;20245;-77
2023/11/03 12:01:49;;;;;;;1.60;1.50;;;9.90;99.90;;;;;;4984478;28;20602;-81
2023/11/03 12:04:17;;;;;;;1.15;1.15;;;9.90;99.90;;;;;;4975556;28;20199;-80
2023/11/03 12:06:45;;;;;;;1.50;1.40;;;9.90;99.90;;;;;;4972549;28;20226;-83
2023/11/03 12:09:15;;;;;;;0.50;0.50;;;9.80;99.90;;;;;;4978399;28;20231;-85
2023/11/03 12:11:43;;;;;;;1.10;1.05;;;9.90;99.90;;;;;;4980692;28;20311;-83
2023/11/03 12:14:11;;;;;;;0.82;0.82;;;9.80;99.90;;;;;;4973210;28;20218;-84
2023/11/03 12:16:38;;;;;;;2.08;1.98;;;9.90;99.90;;;;;;4980037;28;20200;-81
2023/11/03 12:19:11;;;;;;;0.52;0.52;;;9.80;99.90;;;;;;4971331;28;20215;-82
2023/11/03 12:21:41;;;;;;;1.05;1.05;;;9.90;99.90;;;;;;4978888;28;20226;-79
2023/11/03 12:24:09;;;;;;;0.82;0.82;;;9.90;99.90;;;;;;4974369;28;20226;-77
2023/11/03 12:26:36;;;;;;;1.02;1.02;;;9.90;99.90;;;;;;4982814;28;20229;-78
2023/11/03 12:29:28;;;;;;;1.15;1.05;;;9.70;99.90;;;;;;4977239;28;20203;-83
2023/11/03 12:32:00;;;;;;;0.60;0.60;;;9.70;99.90;;;;;;4977327;28;20496;-82
2023/11/03 12:34:29;;;;;;;0.50;0.50;;;9.50;99.90;;;;;;4981030;28;20546;-85
2023/11/03 12:36:58;;;;;;;2.58;1.02;;;9.70;99.90;;;;;;4983544;28;20226;-84
2023/11/03 12:39:26;;;;;;;0.52;0.52;;;9.70;99.90;;;;;;4977054;28;20203;-81
2023/11/03 12:42:04;;;;;;;2.25;2.15;;;9.70;99.90;;;;;;4974984;28;20231;-79
2023/11/03 12:44:48;;;;;;;1.63;1.52;;;9.70;99.90;;;;;;4976259;28;20230;-80
2023/11/03 12:47:35;;;;;;;6.28;2.10;;;9.70;99.90;;;;;;4976236;28;20211;-80
2023/11/03 12:50:16;;;;;;;1.73;1.63;;;9.70;99.90;;;;;;4983864;28;20207;-80
2023/11/03 12:53:11;;;;;;;0.95;0.95;;;9.60;99.90;;;;;;4975182;28;20502;-88
2023/11/03 12:55:41;;;;;;;1.20;1.17;;;9.60;99.90;;;;;;4968223;28;20524;-86
2023/11/03 12:58:10;;;;;;;0.50;0.50;;;9.50;99.90;;;;;;4979415;28;20207;-78